sensor_id;sensor_type;location;lat;lon;timestamp;temperature;humidity
26503;DHT22;14177;51.520;6.764;2022-12-07T00:01:07;5.50;99.90
26503;DHT22;14177;51.520;6.764;2022-12-07T00:03:36;5.50;99.90
26503;DHT22;14177;51.520;6.764;2022-12-07T00:06:05;5.50;99.90
26503;DHT22;14177;51.520;6.764;2022-12-07T00:08:35;5.50;99.90
26503;DHT22;14177;51.520;6.764;2022-12-07T00:13:30;5.50;99.90
26503;DHT22;14177;51.520;6.764;2022-12-07T00:16:02;5.50;99.90
26503;DHT22;14177;51.520;6.764;2022-12-07T00:18:36;5.50;99.90
26503;DHT22;14177;51.520;6.764;2022-12-07T00:21:05;5.50;99.90
26503;DHT22;14177;51.520;6.764;2022-12-07T00:23:35;5.60;99.90
26503;DHT22;14177;51.520;6.764;2022-12-07T00:26:13;5.60;99.90
26503;DHT22;14177;51.520;6.764;2022-12-07T00:28:40;5.50;99.90
26503;DHT22;14177;51.520;6.764;2022-12-07T00:31:09;5.60;99.90
26503;DHT22;14177;51.520;6.764;2022-12-07T00:33:41;5.60;99.90
26503;DHT22;14177;51.520;6.764;2022-12-07T00:36:09;5.50;99.90
26503;DHT22;14177;51.520;6.764;2022-12-07T00:38:38;5.60;99.90
26503;DHT22;14177;51.520;6.764;2022-12-07T00:41:06;5.50;99.90
26503;DHT22;14177;51.520;6.764;2022-12-07T00:43:36;5.50;99.90
26503;DHT22;14177;51.520;6.764;2022-12-07T00:46:03;5.50;99.90
26503;DHT22;14177;51.520;6.764;2022-12-07T00:48:30;5.50;99.90
26503;DHT22;14177;51.520;6.764;2022-12-07T00:50:57;5.50;99.90
26503;DHT22;14177;51.520;6.764;2022-12-07T00:53:24;5.50;99.90
26503;DHT22;14177;51.520;6.764;2022-12-07T00:55:51;5.50;99.90
26503;DHT22;14177;51.520;6.764;2022-12-07T00:58:19;5.40;99.90
26503;DHT22;14177;51.520;6.764;2022-12-07T01:00:46;5.50;99.90
26503;DHT22;14177;51.520;6.764;2022-12-07T01:03:13;5.40;99.90
26503;DHT22;14177;51.520;6.764;2022-12-07T01:05:49;5.40;99.90
26503;DHT22;14177;51.520;6.764;2022-12-07T01:08:17;5.40;99.90
26503;DHT22;14177;51.520;6.764;2022-12-07T01:10:44;5.40;99.90
26503;DHT22;14177;51.520;6.764;2022-12-07T01:13:11;5.40;99.90
26503;DHT22;14177;51.520;6.764;2022-12-07T01:15:39;5.40;99.90
26503;DHT22;14177;51.520;6.764;2022-12-07T01:18:10;5.40;99.90
26503;DHT22;14177;51.520;6.764;2022-12-07T01:20:37;5.40;99.90
26503;DHT22;14177;51.520;6.764;2022-12-07T01:23:04;5.40;99.90
26503;DHT22;14177;51.520;6.764;2022-12-07T01:25:31;5.30;99.90
26503;DHT22;14177;51.520;6.764;2022-12-07T01:27:58;5.30;99.90
26503;DHT22;14177;51.520;6.764;2022-12-07T01:30:25;5.30;99.90
26503;DHT22;14177;51.520;6.764;2022-12-07T01:32:52;5.30;99.90
26503;DHT22;14177;51.520;6.764;2022-12-07T01:35:19;5.30;99.90
26503;DHT22;14177;51.520;6.764;2022-12-07T01:37:45;5.30;99.90
26503;DHT22;14177;51.520;6.764;2022-12-07T01:40:15;5.30;99.90
26503;DHT22;14177;51.520;6.764;2022-12-07T01:42:41;5.30;99.90
26503;DHT22;14177;51.520;6.764;2022-12-07T01:47:46;5.20;99.90
26503;DHT22;14177;51.520;6.764;2022-12-07T01:50:18;5.20;99.90
26503;DHT22;14177;51.520;6.764;2022-12-07T01:52:48;5.20;99.90
26503;DHT22;14177;51.520;6.764;2022-12-07T01:55:17;5.20;99.90
26503;DHT22;14177;51.520;6.764;2022-12-07T01:57:45;5.20;99.90
26503;DHT22;14177;51.520;6.764;2022-12-07T02:00:16;5.10;99.90
26503;DHT22;14177;51.520;6.764;2022-12-07T02:02:49;5.10;99.90
26503;DHT22;14177;51.520;6.764;2022-12-07T03:18:45;4.30;99.90
26503;DHT22;14177;51.520;6.764;2022-12-07T03:21:25;4.30;99.90
26503;DHT22;14177;51.520;6.764;2022-12-07T03:23:56;4.20;99.90
26503;DHT22;14177;51.520;6.764;2022-12-07T03:26:33;4.20;99.90
26503;DHT22;14177;51.520;6.764;2022-12-07T03:29:05;4.20;99.90
26503;DHT22;14177;51.520;6.764;2022-12-07T03:31:38;4.10;99.90
26503;DHT22;14177;51.520;6.764;2022-12-07T03:34:13;4.10;99.90
26503;DHT22;14177;51.520;6.764;2022-12-07T03:36:46;4.10;99.90
26503;DHT22;14177;51.520;6.764;2022-12-07T03:42:39;4.00;99.90
26503;DHT22;14177;51.520;6.764;2022-12-07T03:45:06;4.00;99.90
26503;DHT22;14177;51.520;6.764;2022-12-07T03:50:25;4.00;99.90
26503;DHT22;14177;51.520;6.764;2022-12-07T03:56:20;4.10;99.90
26503;DHT22;14177;51.520;6.764;2022-12-07T03:58:48;4.10;99.90
26503;DHT22;14177;51.520;6.764;2022-12-07T04:01:17;4.10;99.90
26503;DHT22;14177;51.520;6.764;2022-12-07T04:03:45;4.10;99.90
26503;DHT22;14177;51.520;6.764;2022-12-07T04:06:11;4.20;99.90
26503;DHT22;14177;51.520;6.764;2022-12-07T04:08:38;4.10;99.90
26503;DHT22;14177;51.520;6.764;2022-12-07T04:11:05;4.10;99.90
26503;DHT22;14177;51.520;6.764;2022-12-07T04:13:32;4.10;99.90
26503;DHT22;14177;51.520;6.764;2022-12-07T04:16:19;4.10;99.90
26503;DHT22;14177;51.520;6.764;2022-12-07T04:21:54;4.10;99.90
26503;DHT22;14177;51.520;6.764;2022-12-07T04:24:22;4.10;99.90
26503;DHT22;14177;51.520;6.764;2022-12-07T04:26:50;4.00;99.90
26503;DHT22;14177;51.520;6.764;2022-12-07T04:29:17;4.00;99.90
26503;DHT22;14177;51.520;6.764;2022-12-07T04:31:44;4.00;99.90
26503;DHT22;14177;51.520;6.764;2022-12-07T04:34:11;3.90;99.90
26503;DHT22;14177;51.520;6.764;2022-12-07T04:36:39;3.90;99.90
26503;DHT22;14177;51.520;6.764;2022-12-07T04:39:21;3.90;99.90
26503;DHT22;14177;51.520;6.764;2022-12-07T04:42:17;3.90;99.90
26503;DHT22;14177;51.520;6.764;2022-12-07T04:44:49;3.80;99.90
26503;DHT22;14177;51.520;6.764;2022-12-07T04:47:20;3.80;99.90
26503;DHT22;14177;51.520;6.764;2022-12-07T04:49:47;3.80;99.90
26503;DHT22;14177;51.520;6.764;2022-12-07T04:52:14;3.80;99.90
26503;DHT22;14177;51.520;6.764;2022-12-07T04:54:41;3.80;99.90
26503;DHT22;14177;51.520;6.764;2022-12-07T04:57:08;3.80;99.90
26503;DHT22;14177;51.520;6.764;2022-12-07T04:59:44;3.90;99.90
26503;DHT22;14177;51.520;6.764;2022-12-07T05:02:11;3.90;99.90
26503;DHT22;14177;51.520;6.764;2022-12-07T05:04:38;3.90;99.90
26503;DHT22;14177;51.520;6.764;2022-12-07T05:07:05;3.90;99.90
26503;DHT22;14177;51.520;6.764;2022-12-07T05:09:32;3.90;99.90
26503;DHT22;14177;51.520;6.764;2022-12-07T05:12:00;4.00;99.90
26503;DHT22;14177;51.520;6.764;2022-12-07T05:14:28;4.00;99.90
26503;DHT22;14177;51.520;6.764;2022-12-07T05:16:57;4.00;99.90
26503;DHT22;14177;51.520;6.764;2022-12-07T05:19:24;3.90;99.90
26503;DHT22;14177;51.520;6.764;2022-12-07T05:21:54;4.00;99.90
26503;DHT22;14177;51.520;6.764;2022-12-07T05:24:21;4.00;99.90
26503;DHT22;14177;51.520;6.764;2022-12-07T05:26:48;4.00;99.90
26503;DHT22;14177;51.520;6.764;2022-12-07T05:29:21;4.00;99.90
26503;DHT22;14177;51.520;6.764;2022-12-07T05:31:53;4.00;99.90
26503;DHT22;14177;51.520;6.764;2022-12-07T05:34:21;4.00;99.90
26503;DHT22;14177;51.520;6.764;2022-12-07T05:36:48;4.00;99.90
26503;DHT22;14177;51.520;6.764;2022-12-07T05:39:15;4.00;99.90
26503;DHT22;14177;51.520;6.764;2022-12-07T05:41:43;4.00;99.90
26503;DHT22;14177;51.520;6.764;2022-12-07T05:44:29;4.00;99.90
26503;DHT22;14177;51.520;6.764;2022-12-07T05:46:56;4.00;99.90
26503;DHT22;14177;51.520;6.764;2022-12-07T05:49:25;4.00;99.90
26503;DHT22;14177;51.520;6.764;2022-12-07T05:51:53;4.00;99.90
26503;DHT22;14177;51.520;6.764;2022-12-07T05:54:21;4.00;99.90
26503;DHT22;14177;51.520;6.764;2022-12-07T05:56:49;4.00;99.90
26503;DHT22;14177;51.520;6.764;2022-12-07T05:59:18;4.00;99.90
26503;DHT22;14177;51.520;6.764;2022-12-07T06:01:54;4.00;99.90
26503;DHT22;14177;51.520;6.764;2022-12-07T06:04:25;4.00;99.90
26503;DHT22;14177;51.520;6.764;2022-12-07T06:06:55;4.00;99.90
26503;DHT22;14177;51.520;6.764;2022-12-07T06:09:25;3.90;99.90
26503;DHT22;14177;51.520;6.764;2022-12-07T06:11:56;4.00;99.90
26503;DHT22;14177;51.520;6.764;2022-12-07T06:14:44;3.90;99.90
26503;DHT22;14177;51.520;6.764;2022-12-07T06:17:12;3.90;99.90
26503;DHT22;14177;51.520;6.764;2022-12-07T06:19:49;4.00;99.90
26503;DHT22;14177;51.520;6.764;2022-12-07T06:22:17;3.90;99.90
26503;DHT22;14177;51.520;6.764;2022-12-07T06:24:51;4.00;99.90
26503;DHT22;14177;51.520;6.764;2022-12-07T06:27:37;3.90;99.90
26503;DHT22;14177;51.520;6.764;2022-12-07T06:30:04;3.90;99.90
26503;DHT22;14177;51.520;6.764;2022-12-07T06:32:33;4.00;99.90
26503;DHT22;14177;51.520;6.764;2022-12-07T06:37:52;4.00;99.90
26503;DHT22;14177;51.520;6.764;2022-12-07T06:40:20;4.00;99.90
26503;DHT22;14177;51.520;6.764;2022-12-07T06:42:52;4.00;99.90
26503;DHT22;14177;51.520;6.764;2022-12-07T06:45:28;4.00;99.90
26503;DHT22;14177;51.520;6.764;2022-12-07T06:47:55;4.00;99.90
26503;DHT22;14177;51.520;6.764;2022-12-07T06:50:23;4.00;99.90
26503;DHT22;14177;51.520;6.764;2022-12-07T06:52:54;4.00;99.90
26503;DHT22;14177;51.520;6.764;2022-12-07T06:55:24;4.00;99.90
26503;DHT22;14177;51.520;6.764;2022-12-07T06:57:52;4.00;99.90
26503;DHT22;14177;51.520;6.764;2022-12-07T07:00:22;4.00;99.90
26503;DHT22;14177;51.520;6.764;2022-12-07T07:03:01;4.00;99.90
26503;DHT22;14177;51.520;6.764;2022-12-07T07:05:31;4.00;99.90
26503;DHT22;14177;51.520;6.764;2022-12-07T07:08:01;4.00;99.90
26503;DHT22;14177;51.520;6.764;2022-12-07T07:11:52;3.90;99.90
26503;DHT22;14177;51.520;6.764;2022-12-07T07:14:22;3.90;99.90
26503;DHT22;14177;51.520;6.764;2022-12-07T07:16:52;4.00;99.90
26503;DHT22;14177;51.520;6.764;2022-12-07T07:19:23;4.00;99.90
26503;DHT22;14177;51.520;6.764;2022-12-07T07:21:50;4.00;99.90
26503;DHT22;14177;51.520;6.764;2022-12-07T07:24:18;4.00;99.90
26503;DHT22;14177;51.520;6.764;2022-12-07T07:26:51;3.90;99.90
26503;DHT22;14177;51.520;6.764;2022-12-07T07:29:28;4.00;99.90
26503;DHT22;14177;51.520;6.764;2022-12-07T07:32:29;3.90;99.90
26503;DHT22;14177;51.520;6.764;2022-12-07T07:35:11;4.00;99.90
26503;DHT22;14177;51.520;6.764;2022-12-07T07:37:38;3.90;99.90
26503;DHT22;14177;51.520;6.764;2022-12-07T07:40:05;3.90;99.90
26503;DHT22;14177;51.520;6.764;2022-12-07T07:42:33;3.90;99.90
26503;DHT22;14177;51.520;6.764;2022-12-07T07:45:00;3.90;99.90
26503;DHT22;14177;51.520;6.764;2022-12-07T07:47:26;3.90;99.90
26503;DHT22;14177;51.520;6.764;2022-12-07T07:49:55;4.00;99.90
26503;DHT22;14177;51.520;6.764;2022-12-07T07:52:22;4.00;99.90
26503;DHT22;14177;51.520;6.764;2022-12-07T07:54:49;4.00;99.90
26503;DHT22;14177;51.520;6.764;2022-12-07T07:57:16;4.00;99.90
26503;DHT22;14177;51.520;6.764;2022-12-07T07:59:44;4.00;99.90
26503;DHT22;14177;51.520;6.764;2022-12-07T08:02:17;4.00;99.90
26503;DHT22;14177;51.520;6.764;2022-12-07T08:04:46;4.00;99.90
26503;DHT22;14177;51.520;6.764;2022-12-07T08:07:13;4.10;99.90
26503;DHT22;14177;51.520;6.764;2022-12-07T08:09:41;4.10;99.90
26503;DHT22;14177;51.520;6.764;2022-12-07T08:12:08;4.10;99.90
26503;DHT22;14177;51.520;6.764;2022-12-07T08:14:36;4.10;99.90
26503;DHT22;14177;51.520;6.764;2022-12-07T08:17:03;4.10;99.90
26503;DHT22;14177;51.520;6.764;2022-12-07T08:19:30;4.10;99.90
26503;DHT22;14177;51.520;6.764;2022-12-07T08:21:56;4.10;99.90
26503;DHT22;14177;51.520;6.764;2022-12-07T08:24:23;4.10;99.90
26503;DHT22;14177;51.520;6.764;2022-12-07T08:26:51;4.10;99.90
26503;DHT22;14177;51.520;6.764;2022-12-07T08:29:18;4.10;99.90
26503;DHT22;14177;51.520;6.764;2022-12-07T08:31:45;4.10;99.90
26503;DHT22;14177;51.520;6.764;2022-12-07T08:34:13;4.10;99.90
26503;DHT22;14177;51.520;6.764;2022-12-07T08:36:40;4.00;99.90
26503;DHT22;14177;51.520;6.764;2022-12-07T08:39:06;4.10;99.90
26503;DHT22;14177;51.520;6.764;2022-12-07T08:41:53;4.10;99.90
26503;DHT22;14177;51.520;6.764;2022-12-07T08:44:20;4.10;99.90
26503;DHT22;14177;51.520;6.764;2022-12-07T08:46:49;4.10;99.90
26503;DHT22;14177;51.520;6.764;2022-12-07T08:49:25;4.10;99.90
26503;DHT22;14177;51.520;6.764;2022-12-07T08:51:57;4.10;99.90
26503;DHT22;14177;51.520;6.764;2022-12-07T08:54:24;4.10;99.90
26503;DHT22;14177;51.520;6.764;2022-12-07T08:56:54;4.20;99.90
26503;DHT22;14177;51.520;6.764;2022-12-07T08:59:25;4.20;99.90
26503;DHT22;14177;51.520;6.764;2022-12-07T09:01:53;4.20;99.90
26503;DHT22;14177;51.520;6.764;2022-12-07T09:04:20;4.20;99.90
26503;DHT22;14177;51.520;6.764;2022-12-07T09:06:47;4.30;99.90
26503;DHT22;14177;51.520;6.764;2022-12-07T09:09:14;4.40;99.90
26503;DHT22;14177;51.520;6.764;2022-12-07T09:11:41;4.60;99.90
26503;DHT22;14177;51.520;6.764;2022-12-07T09:14:08;4.80;99.90
26503;DHT22;14177;51.520;6.764;2022-12-07T09:16:35;5.20;99.90
26503;DHT22;14177;51.520;6.764;2022-12-07T09:19:02;5.40;99.90
26503;DHT22;14177;51.520;6.764;2022-12-07T09:21:29;5.50;99.90
26503;DHT22;14177;51.520;6.764;2022-12-07T09:23:56;5.50;99.90
26503;DHT22;14177;51.520;6.764;2022-12-07T09:26:22;5.50;99.90
26503;DHT22;14177;51.520;6.764;2022-12-07T09:28:49;5.50;99.90
26503;DHT22;14177;51.520;6.764;2022-12-07T09:31:16;5.40;99.90
26503;DHT22;14177;51.520;6.764;2022-12-07T09:33:58;5.30;99.90
26503;DHT22;14177;51.520;6.764;2022-12-07T09:36:26;5.20;99.90
26503;DHT22;14177;51.520;6.764;2022-12-07T09:38:54;5.20;99.90
26503;DHT22;14177;51.520;6.764;2022-12-07T09:41:22;5.20;99.90
26503;DHT22;14177;51.520;6.764;2022-12-07T09:43:51;5.20;99.90
26503;DHT22;14177;51.520;6.764;2022-12-07T09:46:19;5.30;99.90
26503;DHT22;14177;51.520;6.764;2022-12-07T09:48:47;5.30;99.90
26503;DHT22;14177;51.520;6.764;2022-12-07T09:53:50;5.40;99.90
26503;DHT22;14177;51.520;6.764;2022-12-07T09:56:18;5.50;99.90
26503;DHT22;14177;51.520;6.764;2022-12-07T09:58:46;5.50;99.90
26503;DHT22;14177;51.520;6.764;2022-12-07T10:01:15;5.40;99.90
26503;DHT22;14177;51.520;6.764;2022-12-07T10:06:32;5.50;99.90
26503;DHT22;14177;51.520;6.764;2022-12-07T10:08:59;5.50;99.90
26503;DHT22;14177;51.520;6.764;2022-12-07T10:11:26;5.50;99.90
26503;DHT22;14177;51.520;6.764;2022-12-07T10:13:53;5.60;99.90
26503;DHT22;14177;51.520;6.764;2022-12-07T10:18:50;5.70;99.90
26503;DHT22;14177;51.520;6.764;2022-12-07T10:21:18;5.80;99.90
26503;DHT22;14177;51.520;6.764;2022-12-07T10:26:34;5.90;99.90
26503;DHT22;14177;51.520;6.764;2022-12-07T10:31:51;6.10;99.90
26503;DHT22;14177;51.520;6.764;2022-12-07T10:34:23;6.20;99.90
26503;DHT22;14177;51.520;6.764;2022-12-07T10:36:53;6.30;99.90
26503;DHT22;14177;51.520;6.764;2022-12-07T10:39:39;6.40;99.90
26503;DHT22;14177;51.520;6.764;2022-12-07T10:44:48;6.60;99.90
26503;DHT22;14177;51.520;6.764;2022-12-07T11:01:37;6.50;99.90
26503;DHT22;14177;51.520;6.764;2022-12-07T11:07:06;6.50;99.90
26503;DHT22;14177;51.520;6.764;2022-12-07T11:15:24;6.50;99.90
26503;DHT22;14177;51.520;6.764;2022-12-07T11:18:21;6.50;99.90
26503;DHT22;14177;51.520;6.764;2022-12-07T11:32:34;6.80;99.90
26503;DHT22;14177;51.520;6.764;2022-12-07T11:35:07;7.00;99.90
26503;DHT22;14177;51.520;6.764;2022-12-07T11:37:46;7.10;99.90
26503;DHT22;14177;51.520;6.764;2022-12-07T11:42:51;7.10;99.90
26503;DHT22;14177;51.520;6.764;2022-12-07T11:45:24;7.10;99.90
26503;DHT22;14177;51.520;6.764;2022-12-07T11:48:02;7.10;99.90
26503;DHT22;14177;51.520;6.764;2022-12-07T11:53:20;7.00;99.90
26503;DHT22;14177;51.520;6.764;2022-12-07T12:03:40;6.90;99.90
26503;DHT22;14177;51.520;6.764;2022-12-07T12:06:18;6.90;99.90
26503;DHT22;14177;51.520;6.764;2022-12-07T12:08:47;6.90;99.90
26503;DHT22;14177;51.520;6.764;2022-12-07T12:11:48;6.90;99.90
26503;DHT22;14177;51.520;6.764;2022-12-07T12:14:57;6.90;99.90
26503;DHT22;14177;51.520;6.764;2022-12-07T12:20:26;6.80;99.90
26503;DHT22;14177;51.520;6.764;2022-12-07T12:25:53;6.80;99.90
26503;DHT22;14177;51.520;6.764;2022-12-07T12:28:41;6.70;99.90
26503;DHT22;14177;51.520;6.764;2022-12-07T12:33:56;6.80;99.90
26503;DHT22;14177;51.520;6.764;2022-12-07T12:47:03;6.90;99.90
26503;DHT22;14177;51.520;6.764;2022-12-07T12:52:49;6.90;99.90
26503;DHT22;14177;51.520;6.764;2022-12-07T12:55:22;6.90;99.90
26503;DHT22;14177;51.520;6.764;2022-12-07T12:58:29;6.80;99.90
26503;DHT22;14177;51.520;6.764;2022-12-07T13:04:00;6.80;99.90
26503;DHT22;14177;51.520;6.764;2022-12-07T13:06:32;6.80;99.90
26503;DHT22;14177;51.520;6.764;2022-12-07T13:09:04;6.80;99.90
26503;DHT22;14177;51.520;6.764;2022-12-07T13:12:04;6.90;99.90
26503;DHT22;14177;51.520;6.764;2022-12-07T13:20:06;6.80;99.90
26503;DHT22;14177;51.520;6.764;2022-12-07T13:22:43;6.80;99.90
26503;DHT22;14177;51.520;6.764;2022-12-07T13:28:32;6.80;99.90
26503;DHT22;14177;51.520;6.764;2022-12-07T13:30:53;6.80;99.90
26503;DHT22;14177;51.520;6.764;2022-12-07T13:33:27;6.80;99.90
26503;DHT22;14177;51.520;6.764;2022-12-07T13:35:55;6.80;99.90
26503;DHT22;14177;51.520;6.764;2022-12-07T13:38:30;6.70;99.90
26503;DHT22;14177;51.520;6.764;2022-12-07T13:41:13;6.70;99.90
26503;DHT22;14177;51.520;6.764;2022-12-07T13:43:51;6.60;99.90
26503;DHT22;14177;51.520;6.764;2022-12-07T13:49:39;6.60;99.90
26503;DHT22;14177;51.520;6.764;2022-12-07T13:52:23;6.60;99.90
26503;DHT22;14177;51.520;6.764;2022-12-07T13:54:56;6.60;99.90
26503;DHT22;14177;51.520;6.764;2022-12-07T13:57:27;6.60;99.90
26503;DHT22;14177;51.520;6.764;2022-12-07T13:59:57;6.60;99.90
26503;DHT22;14177;51.520;6.764;2022-12-07T14:05:12;6.60;99.90
26503;DHT22;14177;51.520;6.764;2022-12-07T14:08:01;6.70;99.90
26503;DHT22;14177;51.520;6.764;2022-12-07T14:10:31;6.70;99.90
26503;DHT22;14177;51.520;6.764;2022-12-07T14:13:01;6.70;99.90
26503;DHT22;14177;51.520;6.764;2022-12-07T14:15:30;6.80;99.90
26503;DHT22;14177;51.520;6.764;2022-12-07T14:18:00;6.80;99.90
26503;DHT22;14177;51.520;6.764;2022-12-07T14:20:48;6.80;99.90
26503;DHT22;14177;51.520;6.764;2022-12-07T14:23:25;6.80;99.90
26503;DHT22;14177;51.520;6.764;2022-12-07T14:25:53;6.70;99.90
26503;DHT22;14177;51.520;6.764;2022-12-07T14:28:30;6.80;99.90
26503;DHT22;14177;51.520;6.764;2022-12-07T14:30:59;6.70;99.90
26503;DHT22;14177;51.520;6.764;2022-12-07T14:33:27;6.70;99.90
26503;DHT22;14177;51.520;6.764;2022-12-07T14:35:54;6.70;99.90
26503;DHT22;14177;51.520;6.764;2022-12-07T14:38:24;6.60;99.90
26503;DHT22;14177;51.520;6.764;2022-12-07T14:40:53;6.60;99.90
26503;DHT22;14177;51.520;6.764;2022-12-07T14:43:20;6.50;99.90
26503;DHT22;14177;51.520;6.764;2022-12-07T14:45:47;6.50;99.90
26503;DHT22;14177;51.520;6.764;2022-12-07T14:48:14;6.50;99.90
26503;DHT22;14177;51.520;6.764;2022-12-07T14:51:01;6.40;99.90
26503;DHT22;14177;51.520;6.764;2022-12-07T14:53:50;6.40;99.90
26503;DHT22;14177;51.520;6.764;2022-12-07T14:56:26;6.40;99.90
26503;DHT22;14177;51.520;6.764;2022-12-07T14:58:54;6.40;99.90
26503;DHT22;14177;51.520;6.764;2022-12-07T15:01:21;6.30;99.90
26503;DHT22;14177;51.520;6.764;2022-12-07T15:03:48;6.20;99.90
26503;DHT22;14177;51.520;6.764;2022-12-07T15:06:15;6.20;99.90
26503;DHT22;14177;51.520;6.764;2022-12-07T15:08:43;6.10;99.90
26503;DHT22;14177;51.520;6.764;2022-12-07T15:11:11;6.10;99.90
26503;DHT22;14177;51.520;6.764;2022-12-07T15:13:40;6.00;99.90
26503;DHT22;14177;51.520;6.764;2022-12-07T15:16:25;5.90;99.90
26503;DHT22;14177;51.520;6.764;2022-12-07T15:18:53;5.90;99.90
26503;DHT22;14177;51.520;6.764;2022-12-07T15:21:40;5.90;99.90
26503;DHT22;14177;51.520;6.764;2022-12-07T15:24:08;5.80;99.90
26503;DHT22;14177;51.520;6.764;2022-12-07T15:26:36;5.80;99.90
26503;DHT22;14177;51.520;6.764;2022-12-07T15:29:04;5.80;99.90
26503;DHT22;14177;51.520;6.764;2022-12-07T15:31:31;5.70;99.90
26503;DHT22;14177;51.520;6.764;2022-12-07T15:34:18;5.70;99.90
26503;DHT22;14177;51.520;6.764;2022-12-07T15:36:45;5.70;99.90
26503;DHT22;14177;51.520;6.764;2022-12-07T15:39:12;5.60;99.90
26503;DHT22;14177;51.520;6.764;2022-12-07T15:41:40;5.60;99.90
26503;DHT22;14177;51.520;6.764;2022-12-07T15:44:10;5.50;99.90
26503;DHT22;14177;51.520;6.764;2022-12-07T15:46:57;5.50;99.90
26503;DHT22;14177;51.520;6.764;2022-12-07T15:49:24;5.50;99.90
26503;DHT22;14177;51.520;6.764;2022-12-07T15:51:50;5.50;99.90
26503;DHT22;14177;51.520;6.764;2022-12-07T15:54:19;5.40;99.90
26503;DHT22;14177;51.520;6.764;2022-12-07T15:56:48;5.40;99.90
26503;DHT22;14177;51.520;6.764;2022-12-07T15:59:15;5.50;99.90
26503;DHT22;14177;51.520;6.764;2022-12-07T16:01:42;5.40;99.90
26503;DHT22;14177;51.520;6.764;2022-12-07T16:04:10;5.40;99.90
26503;DHT22;14177;51.520;6.764;2022-12-07T16:06:37;5.40;99.90
26503;DHT22;14177;51.520;6.764;2022-12-07T16:09:04;5.40;99.90
26503;DHT22;14177;51.520;6.764;2022-12-07T16:11:32;5.40;99.90
26503;DHT22;14177;51.520;6.764;2022-12-07T16:13:59;5.40;99.90
26503;DHT22;14177;51.520;6.764;2022-12-07T16:16:26;5.40;99.90
26503;DHT22;14177;51.520;6.764;2022-12-07T16:18:54;5.40;99.90
26503;DHT22;14177;51.520;6.764;2022-12-07T16:21:21;5.30;99.90
26503;DHT22;14177;51.520;6.764;2022-12-07T16:23:51;5.40;99.90
26503;DHT22;14177;51.520;6.764;2022-12-07T16:26:19;5.40;99.90
26503;DHT22;14177;51.520;6.764;2022-12-07T16:28:50;5.40;99.90
26503;DHT22;14177;51.520;6.764;2022-12-07T16:31:20;5.40;99.90
26503;DHT22;14177;51.520;6.764;2022-12-07T16:33:48;5.30;99.90
26503;DHT22;14177;51.520;6.764;2022-12-07T16:36:16;5.30;99.90
26503;DHT22;14177;51.520;6.764;2022-12-07T16:39:03;5.30;99.90
26503;DHT22;14177;51.520;6.764;2022-12-07T16:41:31;5.40;99.90
26503;DHT22;14177;51.520;6.764;2022-12-07T16:44:02;5.30;99.90
26503;DHT22;14177;51.520;6.764;2022-12-07T16:46:31;5.30;99.90
26503;DHT22;14177;51.520;6.764;2022-12-07T16:48:59;5.30;99.90
26503;DHT22;14177;51.520;6.764;2022-12-07T16:51:26;5.30;99.90
26503;DHT22;14177;51.520;6.764;2022-12-07T16:53:53;5.40;99.90
26503;DHT22;14177;51.520;6.764;2022-12-07T16:56:20;5.30;99.90
26503;DHT22;14177;51.520;6.764;2022-12-07T16:58:47;5.40;99.90
26503;DHT22;14177;51.520;6.764;2022-12-07T17:01:16;5.40;99.90
26503;DHT22;14177;51.520;6.764;2022-12-07T17:03:45;5.40;99.90
26503;DHT22;14177;51.520;6.764;2022-12-07T17:06:19;5.40;99.90
26503;DHT22;14177;51.520;6.764;2022-12-07T17:08:48;5.40;99.90
26503;DHT22;14177;51.520;6.764;2022-12-07T17:13:47;5.30;99.90
26503;DHT22;14177;51.520;6.764;2022-12-07T17:16:33;5.40;99.90
26503;DHT22;14177;51.520;6.764;2022-12-07T17:19:05;5.30;99.90
26503;DHT22;14177;51.520;6.764;2022-12-07T17:21:32;5.40;99.90
26503;DHT22;14177;51.520;6.764;2022-12-07T17:24:00;5.30;99.90
26503;DHT22;14177;51.520;6.764;2022-12-07T17:26:28;5.30;99.90
26503;DHT22;14177;51.520;6.764;2022-12-07T17:29:01;5.30;99.90
26503;DHT22;14177;51.520;6.764;2022-12-07T17:31:29;5.30;99.90
26503;DHT22;14177;51.520;6.764;2022-12-07T17:33:56;5.30;99.90
26503;DHT22;14177;51.520;6.764;2022-12-07T17:36:23;5.30;99.90
26503;DHT22;14177;51.520;6.764;2022-12-07T17:38:52;5.30;99.90
26503;DHT22;14177;51.520;6.764;2022-12-07T17:41:22;5.20;99.90
26503;DHT22;14177;51.520;6.764;2022-12-07T17:44:09;5.20;99.90
26503;DHT22;14177;51.520;6.764;2022-12-07T17:46:38;5.30;99.90
26503;DHT22;14177;51.520;6.764;2022-12-07T17:49:06;5.20;99.90
26503;DHT22;14177;51.520;6.764;2022-12-07T17:51:33;5.20;99.90
26503;DHT22;14177;51.520;6.764;2022-12-07T17:54:19;5.20;99.90
26503;DHT22;14177;51.520;6.764;2022-12-07T17:56:46;5.20;99.90
26503;DHT22;14177;51.520;6.764;2022-12-07T17:59:13;5.20;99.90
26503;DHT22;14177;51.520;6.764;2022-12-07T18:01:40;5.20;99.90
26503;DHT22;14177;51.520;6.764;2022-12-07T18:04:07;5.20;99.90
26503;DHT22;14177;51.520;6.764;2022-12-07T18:11:01;5.10;99.90
26503;DHT22;14177;51.520;6.764;2022-12-07T18:13:27;5.10;99.90
26503;DHT22;14177;51.520;6.764;2022-12-07T18:16:04;5.10;99.90
26503;DHT22;14177;51.520;6.764;2022-12-07T18:18:32;5.10;99.90
26503;DHT22;14177;51.520;6.764;2022-12-07T18:21:12;5.00;99.90
26503;DHT22;14177;51.520;6.764;2022-12-07T18:23:44;5.00;99.90
26503;DHT22;14177;51.520;6.764;2022-12-07T18:26:13;5.00;99.90
26503;DHT22;14177;51.520;6.764;2022-12-07T18:28:41;5.00;99.90
26503;DHT22;14177;51.520;6.764;2022-12-07T18:31:09;5.00;99.90
26503;DHT22;14177;51.520;6.764;2022-12-07T18:33:41;5.00;99.90
26503;DHT22;14177;51.520;6.764;2022-12-07T18:36:09;5.00;99.90
26503;DHT22;14177;51.520;6.764;2022-12-07T18:38:37;5.00;99.90
26503;DHT22;14177;51.520;6.764;2022-12-07T18:41:11;5.00;99.90
26503;DHT22;14177;51.520;6.764;2022-12-07T18:43:40;5.00;99.90
26503;DHT22;14177;51.520;6.764;2022-12-07T18:46:08;5.00;99.90
26503;DHT22;14177;51.520;6.764;2022-12-07T18:48:37;5.00;99.90
26503;DHT22;14177;51.520;6.764;2022-12-07T18:51:04;5.00;99.90
26503;DHT22;14177;51.520;6.764;2022-12-07T18:53:32;5.00;99.90
26503;DHT22;14177;51.520;6.764;2022-12-07T18:56:07;5.00;99.90
26503;DHT22;14177;51.520;6.764;2022-12-07T18:58:41;5.00;99.90
26503;DHT22;14177;51.520;6.764;2022-12-07T19:01:29;4.90;99.90
26503;DHT22;14177;51.520;6.764;2022-12-07T19:03:57;5.00;99.90
26503;DHT22;14177;51.520;6.764;2022-12-07T19:06:25;5.00;99.90
26503;DHT22;14177;51.520;6.764;2022-12-07T19:08:52;4.90;99.90
26503;DHT22;14177;51.520;6.764;2022-12-07T19:11:22;4.90;99.90
26503;DHT22;14177;51.520;6.764;2022-12-07T19:14:19;4.90;99.90
26503;DHT22;14177;51.520;6.764;2022-12-07T19:16:55;4.90;99.90
26503;DHT22;14177;51.520;6.764;2022-12-07T19:19:29;4.90;99.90
26503;DHT22;14177;51.520;6.764;2022-12-07T19:22:01;4.90;99.90
26503;DHT22;14177;51.520;6.764;2022-12-07T19:24:28;4.90;99.90
26503;DHT22;14177;51.520;6.764;2022-12-07T19:26:56;4.80;99.90
26503;DHT22;14177;51.520;6.764;2022-12-07T19:29:23;4.80;99.90
26503;DHT22;14177;51.520;6.764;2022-12-07T19:31:50;4.80;99.90
26503;DHT22;14177;51.520;6.764;2022-12-07T19:34:17;4.80;99.90